Informes de METARS cercanos

 

LEAL - Alicante/El Alte, Spain
Distance from station: SSE 60km
Actualización: 19/06/2018 06:00
Despejado
Despejado
 Viento del ONO
Viento: ONO 4 km/h
Temperatura: 19°C
Rocío: 17°C
Humedad: 88%
Barómetro: 1020 hPa
Resumen: Despejado
Visibility: greater than 10 km
2018/06/19 04:00 LEAL 190400Z 30002KT CAVOK 19/17 Q1020 NOSIG
LEVC - Valencia (civ/Mi, Spain
Distance from station: NNE 84km
Actualización: 19/06/2018 06:00
Despejado
Despejado
 Viento del varies
Viento: varies 4 km/h
Temperatura: 19°C
Rocío: 14°C
Humedad: 73%
Barómetro: 1021 hPa
Resumen: Despejado
Visibility: greater than 10 km
2018/06/19 04:00 LEVC 190400Z VRB02KT CAVOK 19/14 Q1021 NOSIG
 
LEAB - Albacete (civ/Mi, Spain
Distance from station: O 95km
Actualización: 19/06/2018 06:00
Despejado
Despejado
 Viento del SE
Viento: SE 7 km/h
Temperatura: 14°C
Rocío: 12°C
Humedad: 88%
Barómetro: 1023 hPa
Resumen: Despejado
Visibility: greater than 10 km
2018/06/19 04:00 LEAB 190400Z 13004KT CAVOK 14/12 Q1023 NOSIG
LERI - Alcantarilla(Sp-, Spain
Distance from station: SSO 100km
Actualización: 18/06/2018 20:00
NOT Current
Despejado
Despejado
 Viento del ESE
Viento: ESE 20 km/h, Racha: 41 km/h
Temperatura: 27°C
Heat Index: 27°C
Rocío: 13°C
Humedad: 42%
Barómetro: 1018 hPa
Resumen: Despejado
Visibility: greater than 10 km
2018/06/18 18:00 LERI 181800Z 11011G22KT 060V160 CAVOK 27/13 Q1018 NOSIG
 
LELC - San Javier(Mil/C, Spain
Distance from station: S 113km
Actualización: 18/06/2018 23:00
NOT Current
Few Clouds
Few Clouds
 Viento del NE
Viento: NE 9 km/h
Temperatura: 22°C
Rocío: 18°C
Humedad: 78%
Barómetro: 1020 hPa
Clouds: Few Clouds
Visibility: 10 km
Cloud details: Few Clouds 488 m
2018/06/18 21:00 LELC 182100Z 05005KT 9999 FEW016 22/18 Q1020 NOSIG
LEIB - Ibiza/Es Codola, Spain
Distance from station: E 186km
Actualización: 19/06/2018 06:00
Few Clouds
Few Clouds
 Viento del NO
Viento: NO 4 km/h
Temperatura: 19°C
Rocío: 17°C
Humedad: 88%
Barómetro: 1020 hPa
Clouds: Few Clouds
Visibility: 10 km
Cloud details: Few Clouds 914 m
2018/06/19 04:00 LEIB 190400Z 32002KT 9999 FEW030 19/17 Q1020 NOSIG
 
LEAM - Almeria Airport, Spain
Distance from station: SSO 256km
Actualización: 19/06/2018 06:00
Despejado
Despejado
 Viento del N
Viento: N 13 km/h
Temperatura: 23°C
Rocío: 12°C
Humedad: 50%
Barómetro: 1019 hPa
Resumen: Despejado
Visibility: greater than 10 km
2018/06/19 04:00 LEAM 190400Z 36007KT 330V030 CAVOK 23/12 Q1019
LEMD - Madrid/Barajas, Spain
Distance from station: NO 305km
Actualización: 19/06/2018 06:00
Despejado
Despejado
 Viento del N
Viento: N 9 km/h
Temperatura: 16°C
Rocío: 10°C
Humedad: 68%
Barómetro: 1022 hPa
Resumen: Despejado
Visibility: greater than 10 km
2018/06/19 04:00 LEMD 190400Z 35005KT CAVOK 16/10 Q1022 NOSIG
 
LEPA - Palma De Mallorc, Spain
Distance from station: ENE 313km
Actualización: 19/06/2018 06:00
Few Clouds
Few Clouds
 Viento del S
Viento: S 4 km/h
Temperatura: 17°C
Rocío: 16°C
Humedad: 94%
Barómetro: 1020 hPa
Clouds: Few Clouds
Visibility: 10 km
Cloud details: Few Clouds 610 m
2018/06/19 04:00 LEPA 190400Z 18002KT 9999 FEW020 17/16 Q1020 NOSIG